DAL161 EHAM-KMSP
Flight info
| Callsign | DAL161 |
|---|---|
| Flight time | N/A |
| Altitude | 38000 |
| Route | BERGI L602 NALAX L46 ESHIN N110 ERKIT DCT GOMUP/M084F380 DCT 59N020W 5930N03000W 5930N04000W 59N050W/M084F400 DCT URTAK/N0494F400 DCT 57N070W 54N080W 50N088W DCT DLH DCT MILAC BAINY4 |
| Aircraft | A359/H-SADE2E3GHIJ1J4J5M1P2RWXYZ/LB1D1G1 |
Departure
| Time | N/A |
|---|---|
| Airport | Amsterdam Airport Schiphol (EHAM) |
Arrival
| Time | 2026-05-05 15:55 |
|---|---|
| Airport | Minneapolis–Saint Paul International Airport / Wold–Chamberlain Field (KMSP) |
| Time | Latitude | Longitude | Altitude | Speed | Heading |
|---|---|---|---|---|---|
| 2026-05-05 15:00 | 48.90312 | -89.52504 | 39741 ft | 477 kts | 224° |
| 2026-05-05 15:01 | 48.85333 | -89.59204 | 39739 ft | 477 kts | 224° |
| 2026-05-05 15:01 | 48.80358 | -89.65882 | 39741 ft | 477 kts | 224° |
| 2026-05-05 15:02 | 48.75377 | -89.72548 | 39744 ft | 477 kts | 224° |
| 2026-05-05 15:02 | 48.70391 | -89.79202 | 39746 ft | 477 kts | 224° |
| 2026-05-05 15:03 | 48.65425 | -89.85812 | 39746 ft | 477 kts | 224° |
| 2026-05-05 15:03 | 48.60433 | -89.92438 | 39747 ft | 476 kts | 224° |
| 2026-05-05 15:04 | 48.55449 | -89.99036 | 39750 ft | 476 kts | 224° |
| 2026-05-05 15:04 | 48.50491 | -90.05583 | 39751 ft | 476 kts | 224° |
| 2026-05-05 15:05 | 48.43000 | -90.15438 | 39741 ft | 476 kts | 224° |
| 2026-05-05 15:06 | 48.38013 | -90.21976 | 39761 ft | 474 kts | 224° |
| 2026-05-05 15:06 | 48.33057 | -90.28459 | 39760 ft | 474 kts | 224° |
| 2026-05-05 15:07 | 48.28071 | -90.34962 | 39768 ft | 474 kts | 224° |
| 2026-05-05 15:07 | 48.23079 | -90.41458 | 39769 ft | 474 kts | 224° |
| 2026-05-05 15:08 | 48.18098 | -90.47932 | 39775 ft | 473 kts | 224° |
| 2026-05-05 15:08 | 48.13123 | -90.54378 | 39775 ft | 472 kts | 224° |
| 2026-05-05 15:09 | 48.08177 | -90.60763 | 39767 ft | 472 kts | 224° |
| 2026-05-05 15:09 | 48.03185 | -90.67187 | 39771 ft | 472 kts | 224° |
| 2026-05-05 15:10 | 47.98194 | -90.73592 | 39770 ft | 472 kts | 224° |
| 2026-05-05 15:10 | 47.93249 | -90.79922 | 39773 ft | 471 kts | 224° |
| 2026-05-05 15:11 | 47.88268 | -90.86282 | 39782 ft | 471 kts | 224° |
| 2026-05-05 15:11 | 47.83306 | -90.92602 | 39801 ft | 471 kts | 224° |
| 2026-05-05 15:12 | 47.78312 | -90.98946 | 39793 ft | 470 kts | 224° |
| 2026-05-05 15:12 | 47.73334 | -91.05250 | 39805 ft | 469 kts | 224° |
| 2026-05-05 15:13 | 47.68392 | -91.11495 | 39808 ft | 469 kts | 224° |
| 2026-05-05 15:13 | 47.63413 | -91.17771 | 39813 ft | 469 kts | 224° |
| 2026-05-05 15:14 | 47.58427 | -91.24038 | 39800 ft | 469 kts | 224° |
| 2026-05-05 15:14 | 47.53457 | -91.30269 | 39830 ft | 468 kts | 224° |
| 2026-05-05 15:15 | 47.48509 | -91.36457 | 39823 ft | 467 kts | 224° |
| 2026-05-05 15:15 | 47.43530 | -91.42668 | 39837 ft | 467 kts | 224° |
| 2026-05-05 15:16 | 47.38589 | -91.48817 | 39838 ft | 467 kts | 224° |
| 2026-05-05 15:16 | 47.33611 | -91.54994 | 39843 ft | 466 kts | 224° |
| 2026-05-05 15:17 | 47.28649 | -91.61135 | 39849 ft | 465 kts | 224° |
| 2026-05-05 15:17 | 47.23681 | -91.67271 | 39847 ft | 465 kts | 224° |
| 2026-05-05 15:18 | 47.18733 | -91.73365 | 39854 ft | 466 kts | 224° |
| 2026-05-05 15:18 | 47.13751 | -91.79485 | 39854 ft | 465 kts | 224° |
| 2026-05-05 15:19 | 47.08806 | -91.85545 | 39831 ft | 465 kts | 224° |
| 2026-05-05 15:19 | 47.03834 | -91.91622 | 39852 ft | 464 kts | 224° |
| 2026-05-05 15:20 | 46.98867 | -91.97680 | 39847 ft | 464 kts | 224° |
| 2026-05-05 15:20 | 46.93923 | -92.03692 | 39833 ft | 464 kts | 224° |
| 2026-05-05 15:21 | 46.88948 | -92.09727 | 39841 ft | 463 kts | 224° |
| 2026-05-05 15:21 | 46.83986 | -92.15732 | 39841 ft | 463 kts | 224° |
| 2026-05-05 15:22 | 46.79201 | -92.21931 | 39844 ft | 459 kts | 230° |
| 2026-05-05 15:22 | 46.74741 | -92.28630 | 39843 ft | 459 kts | 230° |
| 2026-05-05 15:23 | 46.70329 | -92.35297 | 39850 ft | 459 kts | 230° |
| 2026-05-05 15:23 | 46.65892 | -92.41999 | 39850 ft | 459 kts | 230° |
| 2026-05-05 15:24 | 46.61461 | -92.48677 | 39851 ft | 458 kts | 230° |
| 2026-05-05 15:24 | 46.57033 | -92.55337 | 39854 ft | 458 kts | 230° |
| 2026-05-05 15:25 | 46.52615 | -92.61966 | 39877 ft | 458 kts | 230° |
| 2026-05-05 15:25 | 46.48184 | -92.68597 | 39886 ft | 456 kts | 230° |
| 2026-05-05 15:26 | 46.43755 | -92.75210 | 39705 ft | 457 kts | 230° |
| 2026-05-05 15:26 | 46.41550 | -92.78492 | 39571 ft | 448 kts | 230° |
| 2026-05-05 15:26 | 46.39376 | -92.81724 | 39108 ft | 446 kts | 230° |
| 2026-05-05 15:26 | 46.37208 | -92.84949 | 38501 ft | 447 kts | 230° |
| 2026-05-05 15:27 | 46.35042 | -92.88167 | 37783 ft | 447 kts | 230° |
| 2026-05-05 15:27 | 46.32868 | -92.91390 | 37107 ft | 446 kts | 231° |
| 2026-05-05 15:27 | 46.30726 | -92.94563 | 36502 ft | 445 kts | 231° |
| 2026-05-05 15:27 | 46.28561 | -92.97765 | 35846 ft | 445 kts | 231° |
| 2026-05-05 15:28 | 46.26403 | -93.00955 | 35292 ft | 442 kts | 231° |
| 2026-05-05 15:28 | 46.24249 | -93.04132 | 34788 ft | 439 kts | 231° |
| 2026-05-05 15:28 | 46.22118 | -93.07271 | 34280 ft | 435 kts | 231° |
| 2026-05-05 15:28 | 46.20001 | -93.10387 | 33749 ft | 432 kts | 231° |
| 2026-05-05 15:29 | 46.17933 | -93.13428 | 33203 ft | 428 kts | 231° |
| 2026-05-05 15:29 | 46.15854 | -93.16481 | 32700 ft | 423 kts | 231° |
| 2026-05-05 15:29 | 46.13801 | -93.19492 | 32205 ft | 418 kts | 231° |
| 2026-05-05 15:29 | 46.11769 | -93.22470 | 31685 ft | 414 kts | 232° |
| 2026-05-05 15:30 | 46.09764 | -93.25403 | 31236 ft | 408 kts | 232° |
| 2026-05-05 15:30 | 46.07783 | -93.28300 | 30763 ft | 403 kts | 232° |
| 2026-05-05 15:30 | 46.05824 | -93.31162 | 30292 ft | 399 kts | 232° |
| 2026-05-05 15:30 | 46.03889 | -93.33986 | 29786 ft | 394 kts | 232° |
| 2026-05-05 15:31 | 46.01971 | -93.36780 | 29294 ft | 389 kts | 232° |
| 2026-05-05 15:31 | 45.99997 | -93.39375 | 28843 ft | 386 kts | 228° |
| 2026-05-05 15:31 | 45.97958 | -93.41865 | 28380 ft | 381 kts | 227° |
| 2026-05-05 15:31 | 45.95946 | -93.44329 | 27911 ft | 376 kts | 227° |
| 2026-05-05 15:32 | 45.93966 | -93.46773 | 27460 ft | 371 kts | 228° |
| 2026-05-05 15:32 | 45.92044 | -93.49161 | 27010 ft | 367 kts | 228° |
| 2026-05-05 15:32 | 45.90128 | -93.51545 | 26558 ft | 362 kts | 229° |
| 2026-05-05 15:32 | 45.88232 | -93.53909 | 26117 ft | 358 kts | 228° |
| 2026-05-05 15:33 | 45.86360 | -93.56244 | 25674 ft | 355 kts | 228° |
| 2026-05-05 15:33 | 45.85127 | -93.57782 | 25365 ft | 353 kts | 228° |
| 2026-05-05 15:33 | 45.82687 | -93.60824 | 24803 ft | 349 kts | 228° |
| 2026-05-05 15:33 | 45.80853 | -93.63108 | 24338 ft | 347 kts | 227° |
| 2026-05-05 15:34 | 45.79615 | -93.64645 | 24043 ft | 346 kts | 227° |
| 2026-05-05 15:34 | 45.77682 | -93.66656 | 23675 ft | 350 kts | 216° |
| 2026-05-05 15:34 | 45.75390 | -93.67955 | 23197 ft | 361 kts | 200° |
| 2026-05-05 15:34 | 45.72850 | -93.68197 | 22690 ft | 373 kts | 181° |
| 2026-05-05 15:35 | 45.70293 | -93.67335 | 22185 ft | 382 kts | 167° |
| 2026-05-05 15:35 | 45.67796 | -93.66005 | 21695 ft | 381 kts | 165° |
| 2026-05-05 15:35 | 45.64516 | -93.64198 | 21040 ft | 379 kts | 165° |
| 2026-05-05 15:35 | 45.62881 | -93.63307 | 20713 ft | 378 kts | 165° |
| 2026-05-05 15:36 | 45.60425 | -93.61979 | 20283 ft | 376 kts | 165° |
| 2026-05-05 15:36 | 45.57981 | -93.60666 | 19861 ft | 373 kts | 165° |
| 2026-05-05 15:36 | 45.55554 | -93.59358 | 19435 ft | 371 kts | 164° |
| 2026-05-05 15:36 | 45.53175 | -93.58057 | 19019 ft | 369 kts | 164° |
| 2026-05-05 15:37 | 45.50771 | -93.56743 | 18588 ft | 367 kts | 165° |
| 2026-05-05 15:37 | 45.48383 | -93.55445 | 18166 ft | 366 kts | 164° |
| 2026-05-05 15:37 | 45.46008 | -93.54156 | 17708 ft | 364 kts | 164° |
| 2026-05-05 15:37 | 45.43644 | -93.52874 | 17286 ft | 361 kts | 164° |
| 2026-05-05 15:38 | 45.41283 | -93.51598 | 16968 ft | 366 kts | 164° |
| 2026-05-05 15:38 | 45.38900 | -93.50315 | 16912 ft | 374 kts | 164° |
| 2026-05-05 15:38 | 45.36454 | -93.48996 | 16924 ft | 376 kts | 164° |
| 2026-05-05 15:38 | 45.34011 | -93.47680 | 16920 ft | 375 kts | 164° |
| 2026-05-05 15:39 | 45.31561 | -93.46375 | 16927 ft | 376 kts | 165° |
| 2026-05-05 15:39 | 45.29106 | -93.45063 | 16928 ft | 376 kts | 165° |
| 2026-05-05 15:39 | 45.26656 | -93.43754 | 16929 ft | 376 kts | 165° |
| 2026-05-05 15:39 | 45.24238 | -93.42465 | 16928 ft | 376 kts | 165° |
| 2026-05-05 15:40 | 45.21804 | -93.41168 | 16924 ft | 368 kts | 165° |
| 2026-05-05 15:40 | 45.19461 | -93.39912 | 16920 ft | 350 kts | 165° |
| 2026-05-05 15:40 | 45.17225 | -93.38718 | 16922 ft | 339 kts | 165° |
| 2026-05-05 15:40 | 45.15010 | -93.37546 | 16924 ft | 339 kts | 165° |
| 2026-05-05 15:41 | 45.12810 | -93.36337 | 16880 ft | 338 kts | 162° |
| 2026-05-05 15:41 | 45.10674 | -93.34989 | 16514 ft | 336 kts | 161° |
| 2026-05-05 15:41 | 45.08575 | -93.33632 | 15898 ft | 333 kts | 161° |
| 2026-05-05 15:41 | 45.06465 | -93.32285 | 15107 ft | 331 kts | 161° |
| 2026-05-05 15:42 | 45.04298 | -93.31315 | 14326 ft | 322 kts | 176° |
| 2026-05-05 15:42 | 45.02098 | -93.30844 | 13603 ft | 317 kts | 179° |
| 2026-05-05 15:42 | 44.99923 | -93.30450 | 12816 ft | 314 kts | 179° |
| 2026-05-05 15:42 | 44.97765 | -93.30058 | 12064 ft | 311 kts | 178° |
| 2026-05-05 15:43 | 44.95628 | -93.29666 | 11389 ft | 307 kts | 178° |
| 2026-05-05 15:43 | 44.93513 | -93.29276 | 11042 ft | 307 kts | 178° |
| 2026-05-05 15:43 | 44.91414 | -93.28889 | 10859 ft | 306 kts | 178° |
| 2026-05-05 15:43 | 44.89362 | -93.28503 | 10662 ft | 287 kts | 178° |
| 2026-05-05 15:44 | 44.87451 | -93.28138 | 10466 ft | 268 kts | 178° |
| 2026-05-05 15:44 | 44.85635 | -93.27798 | 10284 ft | 259 kts | 178° |
| 2026-05-05 15:44 | 44.83846 | -93.27471 | 10103 ft | 258 kts | 178° |
| 2026-05-05 15:44 | 44.82062 | -93.27145 | 9933 ft | 258 kts | 178° |
| 2026-05-05 15:45 | 44.80301 | -93.26820 | 9764 ft | 256 kts | 178° |
| 2026-05-05 15:45 | 44.78594 | -93.26186 | 9245 ft | 258 kts | 156° |
| 2026-05-05 15:45 | 44.77249 | -93.24479 | 8537 ft | 266 kts | 124° |
| 2026-05-05 15:45 | 44.76268 | -93.22279 | 8059 ft | 262 kts | 120° |
| 2026-05-05 15:46 | 44.75355 | -93.20105 | 8003 ft | 262 kts | 120° |
| 2026-05-05 15:46 | 44.74434 | -93.17898 | 7812 ft | 260 kts | 119° |
| 2026-05-05 15:46 | 44.73519 | -93.15712 | 7622 ft | 258 kts | 119° |
| 2026-05-05 15:46 | 44.72605 | -93.13544 | 7441 ft | 258 kts | 120° |
| 2026-05-05 15:47 | 44.71685 | -93.11375 | 7274 ft | 257 kts | 120° |
| 2026-05-05 15:47 | 44.71078 | -93.09948 | 7170 ft | 256 kts | 120° |
| 2026-05-05 15:47 | 44.69921 | -93.07039 | 6994 ft | 254 kts | 111° |
| 2026-05-05 15:47 | 44.69477 | -93.04660 | 6758 ft | 249 kts | 91° |
| 2026-05-05 15:48 | 44.69631 | -93.02272 | 6376 ft | 243 kts | 69° |
| 2026-05-05 15:48 | 44.70308 | -93.00187 | 5882 ft | 234 kts | 50° |
| 2026-05-05 15:48 | 44.71397 | -92.98550 | 5358 ft | 226 kts | 32° |
| 2026-05-05 15:48 | 44.72744 | -92.97495 | 4826 ft | 219 kts | 15° |
| 2026-05-05 15:49 | 44.74191 | -92.97076 | 4449 ft | 208 kts | 359° |
| 2026-05-05 15:49 | 44.75622 | -92.97248 | 4387 ft | 200 kts | 344° |
| 2026-05-05 15:49 | 44.76855 | -92.97890 | 4390 ft | 183 kts | 330° |
| 2026-05-05 15:49 | 44.77892 | -92.98901 | 4322 ft | 181 kts | 317° |
| 2026-05-05 15:50 | 44.78709 | -93.00215 | 4095 ft | 176 kts | 304° |
| 2026-05-05 15:50 | 44.79346 | -93.01626 | 3862 ft | 171 kts | 302° |
| 2026-05-05 15:50 | 44.79950 | -93.03035 | 3602 ft | 165 kts | 302° |
| 2026-05-05 15:50 | 44.80537 | -93.04402 | 3383 ft | 159 kts | 302° |
| 2026-05-05 15:51 | 44.81097 | -93.05700 | 3189 ft | 155 kts | 303° |
| 2026-05-05 15:51 | 44.81655 | -93.06988 | 3001 ft | 149 kts | 303° |
| 2026-05-05 15:51 | 44.82174 | -93.08177 | 2813 ft | 137 kts | 303° |
| 2026-05-05 15:51 | 44.82656 | -93.09290 | 2600 ft | 128 kts | 303° |
| 2026-05-05 15:52 | 44.83113 | -93.10350 | 2402 ft | 125 kts | 304° |
| 2026-05-05 15:52 | 44.83576 | -93.11396 | 2208 ft | 127 kts | 304° |
| 2026-05-05 15:52 | 44.84053 | -93.12444 | 2087 ft | 126 kts | 304° |
| 2026-05-05 15:52 | 44.84519 | -93.13501 | 1933 ft | 127 kts | 302° |
| 2026-05-05 15:53 | 44.84974 | -93.14547 | 1799 ft | 126 kts | 303° |
| 2026-05-05 15:53 | 44.85438 | -93.15607 | 1643 ft | 128 kts | 303° |
| 2026-05-05 15:53 | 44.85903 | -93.16693 | 1441 ft | 131 kts | 301° |
| 2026-05-05 15:53 | 44.86353 | -93.17794 | 1267 ft | 128 kts | 302° |
| 2026-05-05 15:54 | 44.86816 | -93.18850 | 1063 ft | 126 kts | 301° |
| 2026-05-05 15:54 | 44.87277 | -93.19900 | 917 ft | 127 kts | 300° |
| 2026-05-05 15:54 | 44.87720 | -93.20969 | 827 ft | 121 kts | 301° |
| 2026-05-05 15:54 | 44.88078 | -93.21798 | 823 ft | 74 kts | 301° |
| 2026-05-05 15:55 | 44.88269 | -93.22238 | 829 ft | 41 kts | 301° |
| 2026-05-05 15:55 | 44.88367 | -93.22439 | 829 ft | 13 kts | 333° |
| 2026-05-05 15:55 | 44.88444 | -93.22402 | 825 ft | 12 kts | 54° |
| 2026-05-05 15:55 | 44.88430 | -93.22314 | 825 ft | 10 kts | 121° |
| 2026-05-05 15:56 | 44.88389 | -93.22218 | 825 ft | 14 kts | 121° |
| 2026-05-05 15:56 | 44.88332 | -93.22087 | 828 ft | 17 kts | 121° |
| 2026-05-05 15:56 | 44.88264 | -93.21928 | 829 ft | 20 kts | 121° |
| 2026-05-05 15:56 | 44.88184 | -93.21747 | 824 ft | 23 kts | 121° |
| 2026-05-05 15:57 | 44.88108 | -93.21569 | 824 ft | 22 kts | 121° |
| 2026-05-05 15:57 | 44.88044 | -93.21413 | 825 ft | 12 kts | 112° |
| 2026-05-05 15:57 | 44.88023 | -93.21340 | 827 ft | 5 kts | 111° |
| 2026-05-05 15:57 | 44.88013 | -93.21302 | 823 ft | 4 kts | 103° |
| 2026-05-05 15:58 | 44.88012 | -93.21247 | 829 ft | 7 kts | 91° |
| 2026-05-05 15:58 | 44.88039 | -93.21189 | 827 ft | 8 kts | 42° |
| 2026-05-05 15:58 | 44.88072 | -93.21153 | 824 ft | 1 kts | 37° |
| 2026-05-05 15:59 | 44.88077 | -93.21148 | 827 ft | 2 kts | 37° |
| 2026-05-05 15:59 | 44.88083 | -93.21141 | 824 ft | 0 kts | 37° |
| 2026-05-05 15:59 | 44.88085 | -93.21140 | 824 ft | 1 kts | 37° |
| 2026-05-05 15:59 | 44.88087 | -93.21138 | 824 ft | 0 kts | 37° |